createdAt,value
2022-08-26T00:03:39.318Z,19.02
2022-08-26T00:08:42.463Z,18.95
2022-08-26T00:13:49.666Z,18.88
2022-08-26T00:18:53.199Z,18.83
2022-08-26T00:23:56.057Z,18.78
2022-08-26T00:28:58.931Z,18.73
2022-08-26T00:34:03.200Z,18.63
2022-08-26T00:39:08.541Z,18.54
2022-08-26T00:44:11.522Z,18.49
2022-08-26T00:49:22.279Z,18.46
2022-08-26T00:54:26.923Z,18.41
2022-08-26T00:59:33.054Z,18.32
2022-08-26T01:04:36.715Z,18.24
2022-08-26T01:09:39.730Z,18.15
2022-08-26T01:14:42.723Z,18.09
2022-08-26T01:19:53.444Z,18.07
2022-08-26T01:24:59.272Z,18.05
2022-08-26T01:30:02.253Z,18.00
2022-08-26T01:35:07.591Z,17.95
2022-08-26T01:40:14.923Z,17.92
2022-08-26T01:45:25.528Z,17.92
2022-08-26T01:50:33.341Z,17.89
2022-08-26T01:55:38.212Z,17.87
2022-08-26T02:00:44.095Z,17.89
2022-08-26T02:06:09.309Z,17.91
2022-08-26T02:11:13.311Z,17.88
2022-08-26T02:16:18.451Z,17.81
2022-08-26T02:21:21.908Z,17.77
2022-08-26T02:26:27.706Z,17.75
2022-08-26T02:31:30.492Z,17.71
2022-08-26T02:36:33.518Z,17.65
2022-08-26T02:41:45.084Z,17.62
2022-08-26T02:46:48.345Z,17.63
2022-08-26T02:51:51.863Z,17.62
2022-08-26T02:56:56.162Z,17.60
2022-08-26T03:01:58.931Z,17.60
2022-08-26T03:07:01.703Z,17.61
2022-08-26T03:12:04.613Z,17.60
2022-08-26T03:17:07.788Z,17.53
2022-08-26T03:22:14.487Z,17.49
2022-08-26T03:27:17.754Z,17.49
2022-08-26T03:32:20.755Z,17.48
2022-08-26T03:37:25.300Z,17.39
2022-08-26T03:42:29.397Z,17.36
2022-08-26T03:47:32.643Z,17.34
2022-08-26T03:52:35.635Z,17.30
2022-08-26T03:57:38.433Z,17.28
2022-08-26T04:02:45.948Z,17.33
2022-08-26T04:07:48.861Z,17.38
2022-08-26T04:12:53.392Z,17.42
2022-08-26T04:17:57.232Z,17.52
2022-08-26T04:23:00.523Z,17.60
2022-08-26T04:28:03.780Z,17.66
2022-08-26T04:33:12.647Z,17.59
2022-08-26T04:38:16.322Z,17.62
2022-08-26T04:43:19.037Z,17.65
2022-08-26T04:48:21.791Z,17.74
2022-08-26T04:53:24.646Z,17.94
2022-08-26T04:58:27.659Z,18.23
2022-08-26T05:03:31.177Z,18.48
2022-08-26T05:08:34.155Z,18.61
2022-08-26T05:13:39.106Z,18.73
2022-08-26T05:18:43.570Z,18.83
2022-08-26T05:23:49.461Z,19.00
2022-08-26T05:28:54.579Z,19.17
2022-08-26T05:33:58.429Z,19.38
2022-08-26T05:39:01.755Z,19.60
2022-08-26T05:44:07.967Z,19.80
2022-08-26T05:49:13.373Z,20.01
2022-08-26T05:54:21.668Z,20.22
2022-08-26T05:59:25.329Z,20.42
2022-08-26T06:04:29.971Z,20.60
2022-08-26T06:09:36.243Z,20.75
2022-08-26T06:14:41.628Z,20.93
2022-08-26T06:19:44.563Z,21.09
2022-08-26T06:25:07.308Z,21.23
2022-08-26T06:30:12.316Z,21.34
2022-08-26T06:35:15.540Z,21.47
2022-08-26T06:40:20.990Z,21.58
2022-08-26T06:45:24.366Z,21.70
2022-08-26T06:50:27.128Z,21.92
2022-08-26T06:55:31.276Z,22.07
2022-08-26T07:00:34.163Z,22.23
2022-08-26T07:05:36.953Z,22.40
2022-08-26T07:10:39.734Z,22.59
2022-08-26T07:15:42.804Z,22.70
2022-08-26T07:20:45.751Z,22.83
2022-08-26T07:25:48.604Z,23.04
2022-08-26T07:30:51.888Z,23.21
2022-08-26T07:35:56.074Z,23.42
2022-08-26T07:40:58.888Z,23.52
2022-08-26T07:46:02.053Z,23.62
2022-08-26T07:51:04.993Z,23.79
2022-08-26T07:56:07.761Z,23.99
2022-08-26T08:01:11.756Z,24.13
2022-08-26T08:06:17.975Z,24.24
2022-08-26T08:11:21.226Z,24.43
2022-08-26T08:16:26.025Z,24.64
2022-08-26T08:21:30.412Z,24.80
2022-08-26T08:27:38.826Z,24.95
2022-08-26T08:32:43.615Z,25.17
2022-08-26T08:37:46.788Z,25.41
2022-08-26T08:43:05.278Z,25.61
2022-08-26T08:48:27.599Z,25.81
2022-08-26T08:53:37.524Z,26.02
2022-08-26T08:58:59.506Z,26.26
2022-08-26T09:04:20.708Z,26.50
2022-08-26T09:09:37.535Z,26.72
2022-08-26T09:14:40.482Z,27.00
2022-08-26T09:19:48.441Z,27.37
2022-08-26T09:24:52.384Z,27.84
2022-08-26T09:29:59.043Z,28.24
2022-08-26T09:35:09.950Z,28.54
2022-08-26T09:40:12.991Z,28.80
2022-08-26T09:45:17.039Z,29.00
2022-08-26T09:50:29.346Z,29.22
2022-08-26T09:55:38.290Z,29.44
2022-08-26T10:00:57.309Z,29.66
2022-08-26T10:06:23.355Z,30.08
2022-08-26T10:11:47.269Z,30.98
2022-08-26T10:17:14.644Z,32.24
2022-08-26T10:22:29.557Z,33.40
2022-08-26T10:28:05.238Z,34.37
2022-08-26T10:33:10.990Z,34.61
2022-08-26T10:38:17.801Z,35.39
2022-08-26T10:43:30.199Z,36.32
2022-08-26T10:49:06.725Z,37.58
2022-08-26T10:54:19.832Z,38.56
2022-08-26T10:59:51.847Z,39.06
2022-08-26T11:05:04.368Z,39.70
2022-08-26T11:10:16.250Z,39.49
2022-08-26T11:15:24.883Z,38.72
2022-08-26T11:20:27.954Z,38.16
2022-08-26T11:25:31.420Z,38.08
2022-08-26T11:30:41.033Z,38.38
2022-08-26T11:35:43.769Z,38.27
2022-08-26T11:41:06.477Z,37.62
2022-08-26T11:46:12.009Z,36.56
2022-08-26T11:51:24.522Z,35.60
2022-08-26T11:56:31.613Z,34.47
2022-08-26T12:01:39.209Z,33.60
2022-08-26T12:06:51.113Z,33.20
2022-08-26T12:11:58.131Z,32.87
2022-08-26T12:17:27.321Z,33.57
2022-08-26T12:22:37.033Z,36.93
2022-08-26T12:27:44.574Z,39.72
2022-08-26T12:32:57.539Z,41.40
2022-08-26T12:38:02.017Z,43.74
2022-08-26T12:43:07.052Z,45.56
2022-08-26T12:48:27.469Z,46.68
2022-08-26T12:53:35.116Z,47.15
2022-08-26T12:58:38.719Z,46.09
2022-08-26T13:03:45.339Z,44.84
2022-08-26T13:08:52.934Z,45.76
2022-08-26T13:14:10.525Z,47.43
2022-08-26T13:19:19.406Z,47.10
2022-08-26T13:24:37.138Z,47.61
2022-08-26T13:29:40.074Z,47.63
2022-08-26T13:34:48.193Z,48.35
2022-08-26T13:39:54.449Z,48.73
2022-08-26T13:44:58.224Z,49.29
2022-08-26T13:50:01.536Z,50.11
2022-08-26T13:55:04.965Z,50.69
2022-08-26T14:00:11.113Z,50.93
2022-08-26T14:05:14.018Z,51.12
2022-08-26T14:10:16.926Z,51.35
2022-08-26T14:15:19.720Z,51.51
2022-08-26T14:20:27.326Z,51.39
2022-08-26T14:25:30.462Z,50.63
2022-08-26T14:30:33.383Z,51.08
2022-08-26T14:35:36.132Z,51.26
2022-08-26T14:40:40.309Z,51.02
2022-08-26T14:45:44.164Z,49.25
2022-08-26T14:50:46.908Z,48.03
2022-08-26T14:55:50.606Z,46.48
2022-08-26T15:00:53.324Z,45.17
2022-08-26T15:05:56.759Z,43.45
2022-08-26T15:10:59.642Z,41.99
2022-08-26T15:16:02.764Z,40.41
2022-08-26T15:21:06.120Z,39.15
2022-08-26T15:26:10.353Z,37.97
2022-08-26T15:31:13.895Z,37.07
2022-08-26T15:36:16.754Z,36.29
2022-08-26T15:41:19.560Z,35.45
2022-08-26T15:46:22.398Z,34.84
2022-08-26T15:51:34.236Z,34.31
2022-08-26T15:56:38.582Z,33.73
2022-08-26T16:01:41.424Z,33.27
2022-08-26T16:06:46.992Z,32.73
2022-08-26T16:11:49.934Z,32.19
2022-08-26T16:16:53.442Z,31.71
2022-08-26T16:21:56.220Z,31.24
2022-08-26T16:26:59.427Z,30.87
2022-08-26T16:32:08.607Z,30.57
2022-08-26T16:37:11.772Z,30.15
2022-08-26T16:42:15.327Z,29.83
2022-08-26T16:47:18.534Z,29.57
2022-08-26T16:52:21.380Z,29.29
2022-08-26T16:57:27.640Z,29.02
2022-08-26T17:02:30.504Z,28.78
2022-08-26T17:07:35.572Z,28.52
2022-08-26T17:12:39.196Z,28.18
2022-08-26T17:17:42.019Z,27.88
2022-08-26T17:22:48.210Z,27.59
2022-08-26T17:27:51.469Z,27.31
2022-08-26T17:32:54.458Z,27.03
2022-08-26T17:37:57.221Z,26.76
2022-08-26T17:43:00.116Z,26.50
2022-08-26T17:48:03.450Z,26.25
2022-08-26T17:53:06.489Z,25.98
2022-08-26T17:58:09.440Z,25.70
2022-08-26T18:03:13.073Z,25.45
2022-08-26T18:08:15.867Z,25.21
2022-08-26T18:13:18.993Z,24.99
2022-08-26T18:18:21.741Z,24.79
2022-08-26T18:23:24.732Z,24.59
2022-08-26T18:28:29.604Z,24.41
2022-08-26T18:33:35.476Z,24.22
2022-08-26T18:38:38.209Z,24.02
2022-08-26T18:43:45.576Z,23.84
2022-08-26T18:48:50.779Z,23.66
2022-08-26T18:53:54.120Z,23.50
2022-08-26T18:58:59.028Z,23.36
2022-08-26T19:04:03.622Z,23.21
2022-08-26T19:09:08.256Z,23.06
2022-08-26T19:14:14.199Z,22.91
2022-08-26T19:19:17.117Z,22.74
2022-08-26T19:24:20.549Z,22.61
2022-08-26T19:29:24.863Z,22.43
2022-08-26T19:34:28.061Z,22.28
2022-08-26T19:39:30.897Z,22.13
2022-08-26T19:44:52.659Z,21.97
2022-08-26T19:49:55.811Z,21.81
2022-08-26T19:54:59.036Z,21.68
2022-08-26T20:00:02.589Z,21.55
2022-08-26T20:05:06.547Z,21.42
2022-08-26T20:10:15.110Z,21.28
2022-08-26T20:15:19.505Z,21.14
2022-08-26T20:20:40.867Z,21.02
2022-08-26T20:25:43.644Z,20.88
2022-08-26T20:30:46.459Z,20.80
2022-08-26T20:35:49.256Z,20.74
2022-08-26T20:40:51.987Z,20.67
2022-08-26T20:45:59.168Z,20.58
2022-08-26T20:51:02.081Z,20.50
2022-08-26T20:56:08.298Z,20.41
2022-08-26T21:01:22.499Z,20.38
2022-08-26T21:06:25.333Z,20.36
2022-08-26T21:11:29.200Z,20.35
2022-08-26T21:16:32.280Z,20.32
2022-08-26T21:21:35.697Z,20.26
2022-08-26T21:26:38.675Z,20.19
2022-08-26T21:32:16.729Z,20.13
2022-08-26T21:37:19.612Z,20.11
2022-08-26T21:42:25.371Z,20.14
2022-08-26T21:47:28.760Z,20.16
2022-08-26T21:52:31.525Z,20.16
2022-08-26T21:57:36.485Z,20.18
2022-08-26T22:34:45.671Z,19.91
2022-08-26T22:39:48.412Z,19.90
2022-08-26T22:46:29.134Z,19.89
2022-08-26T22:51:32.110Z,19.80
2022-08-26T22:57:08.491Z,19.71
2022-08-26T23:02:12.090Z,19.66
2022-08-26T23:07:19.150Z,19.66
2022-08-26T23:12:22.145Z,19.67
2022-08-26T23:17:24.974Z,19.66
2022-08-26T23:22:28.928Z,19.60
2022-08-26T23:27:31.719Z,19.54
2022-08-26T23:32:34.795Z,19.50
2022-08-26T23:37:41.609Z,19.47
2022-08-26T23:42:44.509Z,19.42
2022-08-26T23:47:47.484Z,19.39
2022-08-26T23:53:05.781Z,19.34
2022-08-26T23:58:08.739Z,19.29
